createdAt,value
2018-07-23T00:02:13.318Z,29.03
2018-07-23T00:04:42.007Z,27.77
2018-07-23T00:07:10.684Z,27.47
2018-07-23T00:09:39.371Z,27.77
2018-07-23T00:12:08.182Z,27.93
2018-07-23T00:14:36.857Z,27.43
2018-07-23T00:17:06.274Z,27.10
2018-07-23T00:19:34.966Z,26.50
2018-07-23T00:22:03.693Z,27.83
2018-07-23T00:24:32.429Z,27.50
2018-07-23T00:27:01.102Z,28.73
2018-07-23T00:29:29.792Z,26.30
2018-07-23T00:31:58.444Z,28.40
2018-07-23T00:34:27.121Z,28.13
2018-07-23T00:36:55.794Z,27.60
2018-07-23T00:39:24.469Z,29.10
2018-07-23T00:41:53.192Z,29.10
2018-07-23T00:44:21.984Z,25.93
2018-07-23T00:46:50.724Z,28.37
2018-07-23T00:49:19.611Z,28.77
2018-07-23T00:51:48.331Z,27.60
2018-07-23T00:54:17.026Z,27.50
2018-07-23T00:56:45.748Z,28.83
2018-07-23T00:59:14.437Z,29.07
2018-07-23T01:01:43.109Z,27.20
2018-07-23T01:04:11.818Z,28.50
2018-07-23T01:06:40.531Z,29.57
2018-07-23T01:09:10.274Z,26.20
2018-07-23T01:11:38.963Z,27.07
2018-07-23T01:14:08.017Z,27.63
2018-07-23T01:16:36.744Z,29.20
2018-07-23T01:19:05.458Z,28.67
2018-07-23T01:21:34.308Z,26.83
2018-07-23T01:24:03.015Z,27.93
2018-07-23T01:26:31.725Z,30.30
2018-07-23T01:29:00.409Z,29.00
2018-07-23T01:31:29.118Z,28.00
2018-07-23T01:33:57.817Z,28.67
2018-07-23T01:36:26.514Z,29.47
2018-07-23T01:38:55.178Z,28.83
2018-07-23T01:41:23.898Z,28.53
2018-07-23T01:43:52.590Z,29.10
2018-07-23T01:46:21.259Z,27.60
2018-07-23T01:48:49.964Z,29.40
2018-07-23T01:51:18.641Z,28.10
2018-07-23T01:53:47.338Z,27.20
2018-07-23T01:56:16.062Z,28.27
2018-07-23T01:58:44.786Z,29.47
2018-07-23T02:01:13.469Z,30.97
2018-07-23T02:03:42.513Z,29.63
2018-07-23T02:06:11.334Z,29.70
2018-07-23T02:08:40.092Z,28.37
2018-07-23T02:11:08.836Z,29.87
2018-07-23T02:13:37.558Z,28.53
2018-07-23T02:16:06.324Z,28.70
2018-07-23T02:18:35.003Z,29.17
2018-07-23T02:21:03.931Z,28.57
2018-07-23T02:23:32.628Z,30.43
2018-07-23T02:26:01.304Z,30.07
2018-07-23T02:28:30.011Z,30.53
2018-07-23T02:30:58.689Z,29.77
2018-07-23T02:33:27.454Z,29.87
2018-07-23T02:35:56.137Z,30.57
2018-07-23T02:38:24.821Z,31.63
2018-07-23T02:40:53.506Z,32.60
2018-07-23T02:43:22.409Z,31.17
2018-07-23T02:45:51.123Z,32.70
2018-07-23T02:48:19.847Z,32.00
2018-07-23T02:50:48.554Z,33.90
2018-07-23T02:53:17.217Z,30.00
2018-07-23T02:55:45.906Z,32.93
2018-07-23T02:58:14.551Z,31.37
2018-07-23T03:00:43.282Z,32.30
2018-07-23T03:03:11.953Z,34.73
2018-07-23T03:05:40.692Z,35.27
2018-07-23T03:08:09.451Z,34.20
2018-07-23T03:10:38.244Z,33.93
2018-07-23T03:13:07.401Z,34.07
2018-07-23T03:15:36.147Z,34.30
2018-07-23T03:18:04.875Z,32.50
2018-07-23T03:20:33.652Z,32.17
2018-07-23T03:23:02.446Z,33.77
2018-07-23T03:25:31.110Z,32.77
2018-07-23T03:27:59.790Z,33.77
2018-07-23T03:30:28.446Z,33.03
2018-07-23T03:32:57.148Z,32.77
2018-07-23T03:35:25.821Z,32.13
2018-07-23T03:37:54.659Z,33.30
2018-07-23T03:40:23.335Z,32.03
2018-07-23T03:42:52.171Z,33.27
2018-07-23T03:45:21.087Z,33.50
2018-07-23T03:47:49.773Z,33.43
2018-07-23T03:50:18.482Z,33.50
2018-07-23T03:52:47.169Z,33.97
2018-07-23T03:55:15.874Z,35.13
2018-07-23T03:57:44.599Z,34.47
2018-07-23T04:00:13.325Z,32.87
2018-07-23T04:02:42.071Z,34.67
2018-07-23T04:05:10.791Z,35.37
2018-07-23T04:07:39.498Z,34.43
2018-07-23T04:10:08.214Z,33.33
2018-07-23T04:12:36.910Z,34.73
2018-07-23T04:15:07.239Z,34.93
2018-07-23T04:17:36.010Z,33.67
2018-07-23T04:20:04.893Z,32.80
2018-07-23T04:22:33.598Z,33.60
2018-07-23T04:25:02.296Z,34.23
2018-07-23T04:27:30.988Z,33.77
2018-07-23T04:29:59.665Z,31.37
2018-07-23T04:32:28.338Z,32.13
2018-07-23T04:34:57.024Z,32.03
2018-07-23T04:37:25.707Z,33.03
2018-07-23T04:39:54.390Z,33.03
2018-07-23T04:42:23.109Z,32.37
2018-07-23T04:44:51.768Z,31.67
2018-07-23T04:47:20.437Z,32.27
2018-07-23T04:49:49.081Z,32.93
2018-07-23T04:52:17.773Z,33.13
2018-07-23T04:54:46.494Z,32.37
2018-07-23T04:57:15.198Z,32.33
2018-07-23T04:59:44.023Z,31.37
2018-07-23T05:02:12.728Z,31.77
2018-07-23T05:04:41.455Z,31.10
2018-07-23T05:07:10.153Z,31.57
2018-07-23T05:09:38.816Z,30.97
2018-07-23T05:12:07.502Z,32.37
2018-07-23T05:14:36.194Z,31.07
2018-07-23T05:17:04.930Z,32.83
2018-07-23T05:19:33.626Z,30.77
2018-07-23T05:22:02.284Z,30.93
2018-07-23T05:24:31.009Z,30.73
2018-07-23T05:26:59.664Z,30.70
2018-07-23T05:29:28.338Z,33.50
2018-07-23T05:31:57.018Z,31.63
2018-07-23T05:34:25.687Z,31.53
2018-07-23T05:36:54.370Z,31.27
2018-07-23T05:39:23.023Z,30.10
2018-07-23T05:41:51.753Z,28.63
2018-07-23T05:44:20.994Z,29.60
2018-07-23T05:46:49.695Z,29.50
2018-07-23T05:49:18.423Z,28.23
2018-07-23T05:51:47.098Z,29.50
2018-07-23T05:54:15.800Z,30.50
2018-07-23T05:56:44.486Z,27.93
2018-07-23T05:59:13.173Z,28.87
2018-07-23T06:01:41.919Z,27.70
2018-07-23T06:04:10.639Z,26.67
2018-07-23T06:06:39.330Z,26.83
2018-07-23T06:09:09.110Z,27.80
2018-07-23T06:11:37.782Z,27.63
2018-07-23T06:14:06.491Z,27.00
2018-07-23T06:16:35.247Z,26.33
2018-07-23T06:19:03.543Z,26.63
2018-07-23T06:21:32.264Z,25.47
2018-07-23T06:24:00.929Z,25.60
2018-07-23T06:26:29.641Z,25.27
2018-07-23T06:28:58.326Z,25.80
2018-07-23T06:31:27.028Z,26.63
2018-07-23T06:33:55.748Z,25.27
2018-07-23T06:36:24.387Z,24.13
2018-07-23T06:38:53.147Z,23.67
2018-07-23T06:41:21.814Z,24.83
2018-07-23T06:43:50.469Z,24.50
2018-07-23T06:46:19.354Z,22.47
2018-07-23T06:48:48.009Z,23.03
2018-07-23T06:51:16.677Z,22.77
2018-07-23T06:53:45.359Z,23.43
2018-07-23T06:56:14.018Z,22.70
2018-07-23T06:58:54.814Z,22.77
2018-07-23T07:01:23.503Z,21.87
2018-07-23T07:03:52.184Z,22.70
2018-07-23T07:06:20.878Z,24.97
2018-07-23T07:08:49.568Z,23.73
2018-07-23T07:11:18.262Z,24.57
2018-07-23T07:13:46.929Z,21.83
2018-07-23T07:16:15.654Z,21.63
2018-07-23T07:18:44.309Z,22.37
2018-07-23T07:21:13.005Z,22.50
2018-07-23T07:23:41.671Z,21.20
2018-07-23T07:26:10.371Z,20.77
2018-07-23T07:28:39.037Z,21.27
2018-07-23T07:31:07.709Z,21.60
2018-07-23T07:33:36.376Z,20.70
2018-07-23T07:36:05.028Z,19.83
2018-07-23T07:38:33.718Z,20.13
2018-07-23T07:41:02.425Z,20.43
2018-07-23T07:43:31.124Z,20.60
2018-07-23T07:45:59.809Z,18.90
2018-07-23T07:48:28.870Z,19.60
2018-07-23T07:50:57.528Z,18.47
2018-07-23T07:53:26.229Z,17.23
2018-07-23T07:55:54.911Z,17.63
2018-07-23T07:58:23.577Z,16.43
2018-07-23T08:00:52.308Z,15.33
2018-07-23T08:03:21.041Z,16.53
2018-07-23T08:05:49.754Z,17.00
2018-07-23T08:08:18.426Z,15.70
2018-07-23T08:10:47.120Z,15.77
2018-07-23T08:13:18.714Z,14.23
2018-07-23T08:15:47.605Z,13.07
2018-07-23T08:18:16.307Z,14.37
2018-07-23T08:20:45.014Z,15.00
2018-07-23T08:23:13.713Z,13.23
2018-07-23T08:25:42.402Z,13.50
2018-07-23T08:28:11.126Z,12.27
2018-07-23T08:30:39.786Z,12.07
2018-07-23T08:33:09.078Z,11.90
2018-07-23T08:35:38.010Z,11.77
2018-07-23T08:38:06.708Z,12.70
2018-07-23T08:40:35.397Z,11.77
2018-07-23T08:43:04.195Z,11.33
2018-07-23T08:45:32.928Z,10.77
2018-07-23T08:48:01.686Z,10.50
2018-07-23T08:50:30.454Z,10.90
2018-07-23T08:52:59.192Z,11.40
2018-07-23T08:55:28.730Z,10.77
2018-07-23T08:57:57.738Z,10.07
2018-07-23T09:00:26.506Z,9.87
2018-07-23T09:02:55.260Z,10.90
2018-07-23T09:05:24.084Z,10.90
2018-07-23T09:07:52.813Z,11.00
2018-07-23T09:10:21.608Z,11.57
2018-07-23T09:12:50.457Z,11.13
2018-07-23T09:15:19.261Z,10.60
2018-07-23T09:17:48.048Z,10.83
2018-07-23T09:20:16.736Z,9.73
2018-07-23T09:22:45.478Z,10.43
2018-07-23T09:25:14.246Z,10.93
2018-07-23T09:27:42.957Z,12.17
2018-07-23T09:30:17.246Z,11.73
2018-07-23T09:32:45.979Z,12.20
2018-07-23T09:35:14.669Z,10.83
2018-07-23T09:37:43.389Z,11.13
2018-07-23T09:40:12.079Z,10.93
2018-07-23T09:42:40.796Z,11.17
2018-07-23T09:45:09.531Z,11.27
2018-07-23T09:47:38.256Z,9.77
2018-07-23T09:50:06.960Z,10.80
2018-07-23T09:52:35.672Z,11.03
2018-07-23T09:55:04.445Z,10.57
2018-07-23T09:57:33.167Z,10.57
2018-07-23T10:00:01.944Z,9.77
2018-07-23T10:02:30.619Z,9.83
2018-07-23T10:04:59.325Z,9.27
2018-07-23T10:07:28.031Z,10.03
2018-07-23T10:09:56.707Z,8.13
2018-07-23T10:12:25.406Z,8.47
2018-07-23T10:14:54.063Z,8.47
2018-07-23T10:17:22.762Z,9.17
2018-07-23T10:19:51.817Z,9.97
2018-07-23T10:22:20.563Z,8.50
2018-07-23T10:24:49.231Z,9.83
2018-07-23T10:27:17.926Z,9.57
2018-07-23T10:29:46.600Z,9.70
2018-07-23T10:32:15.322Z,8.17
2018-07-23T10:34:43.999Z,9.83
2018-07-23T10:37:12.681Z,8.83
2018-07-23T10:39:41.384Z,9.13
2018-07-23T10:42:10.051Z,9.07
2018-07-23T10:44:38.818Z,9.23
2018-07-23T10:47:07.488Z,9.17
2018-07-23T10:49:36.263Z,8.73
2018-07-23T10:52:04.922Z,9.13
2018-07-23T10:54:33.606Z,9.50
2018-07-23T10:57:02.307Z,9.20
2018-07-23T10:59:31.006Z,8.63
2018-07-23T11:01:59.710Z,7.03
2018-07-23T11:04:28.401Z,9.03
2018-07-23T11:06:57.118Z,7.57
2018-07-23T11:09:25.837Z,7.60
2018-07-23T11:11:54.594Z,9.47
2018-07-23T11:14:23.714Z,8.83
2018-07-23T11:16:52.478Z,8.43
2018-07-23T11:19:21.191Z,7.17
2018-07-23T11:21:49.884Z,8.67
2018-07-23T11:24:18.607Z,8.90
2018-07-23T11:26:47.271Z,7.63
2018-07-23T11:29:15.987Z,8.60
2018-07-23T11:31:44.684Z,7.50
2018-07-23T11:34:13.415Z,7.27
2018-07-23T11:36:42.124Z,7.50
2018-07-23T11:39:12.056Z,6.77
2018-07-23T11:41:40.899Z,7.20
2018-07-23T11:44:09.565Z,6.87
2018-07-23T11:46:38.273Z,6.17
2018-07-23T11:49:06.961Z,6.07
2018-07-23T11:51:35.784Z,6.93
2018-07-23T11:54:04.538Z,6.40
2018-07-23T11:56:33.264Z,6.70
2018-07-23T11:59:02.071Z,6.87
2018-07-23T12:01:30.981Z,7.00
2018-07-23T12:03:59.636Z,6.70
2018-07-23T12:06:28.310Z,6.57
2018-07-23T12:08:57.005Z,6.20
2018-07-23T12:11:25.752Z,6.90
2018-07-23T12:13:54.453Z,6.20
2018-07-23T12:16:23.135Z,6.53
2018-07-23T12:18:51.811Z,6.90
2018-07-23T12:21:20.481Z,6.33
2018-07-23T12:23:49.580Z,7.70
2018-07-23T12:26:18.249Z,6.30
2018-07-23T12:28:46.954Z,7.27
2018-07-23T12:31:15.657Z,6.93
2018-07-23T12:33:44.332Z,6.40
2018-07-23T12:36:13.065Z,5.87
2018-07-23T12:38:41.729Z,7.00
2018-07-23T12:41:10.443Z,5.63
2018-07-23T12:43:39.122Z,6.23
2018-07-23T12:46:07.831Z,5.80
2018-07-23T12:48:36.503Z,6.80
2018-07-23T12:51:05.242Z,5.93
2018-07-23T12:53:33.946Z,5.77
2018-07-23T12:56:02.626Z,6.13
2018-07-23T12:58:31.317Z,6.07
2018-07-23T13:01:00.016Z,6.77
2018-07-23T13:03:28.748Z,6.63
2018-07-23T13:05:57.432Z,5.70
2018-07-23T13:08:26.126Z,7.07
2018-07-23T13:10:54.860Z,6.27
2018-07-23T13:13:23.726Z,6.20
2018-07-23T13:15:52.057Z,6.93
2018-07-23T13:18:20.752Z,6.67
2018-07-23T13:20:49.448Z,5.87
2018-07-23T13:23:18.198Z,5.53
2018-07-23T13:25:46.913Z,5.53
2018-07-23T13:28:15.591Z,5.63
2018-07-23T13:30:44.333Z,5.70
2018-07-23T13:33:12.622Z,5.37
2018-07-23T13:35:41.378Z,6.37
2018-07-23T13:38:10.268Z,5.37
2018-07-23T13:40:38.957Z,5.70
2018-07-23T13:43:07.856Z,5.70
2018-07-23T13:45:36.549Z,6.00
2018-07-23T13:48:05.287Z,5.23
2018-07-23T13:50:33.989Z,5.67
2018-07-23T13:53:02.737Z,9.17
2018-07-23T13:55:31.466Z,6.50
2018-07-23T13:58:00.138Z,4.80
2018-07-23T14:00:28.830Z,5.40
2018-07-23T14:02:57.502Z,6.63
2018-07-23T14:05:26.366Z,5.73
2018-07-23T14:07:55.026Z,6.50
2018-07-23T14:10:23.698Z,8.07
2018-07-23T14:12:52.465Z,8.93
2018-07-23T14:15:21.140Z,7.67
2018-07-23T14:17:49.833Z,8.10
2018-07-23T14:20:18.517Z,7.83
2018-07-23T14:22:47.209Z,7.60
2018-07-23T14:25:15.880Z,7.30
2018-07-23T14:27:44.584Z,8.07
2018-07-23T14:30:13.291Z,7.53
2018-07-23T14:32:41.942Z,7.87
2018-07-23T14:35:10.678Z,8.53
2018-07-23T14:37:39.370Z,7.90
2018-07-23T14:40:08.115Z,8.13
2018-07-23T14:42:36.776Z,8.33
2018-07-23T14:45:06.189Z,8.00
2018-07-23T14:47:34.843Z,7.60
2018-07-23T14:50:03.551Z,7.80
2018-07-23T14:52:32.599Z,8.20
2018-07-23T14:55:01.260Z,7.90
2018-07-23T14:57:29.942Z,7.83
2018-07-23T14:59:58.600Z,6.93
2018-07-23T15:02:27.333Z,7.43
2018-07-23T15:04:56.062Z,8.27
2018-07-23T15:07:24.759Z,8.53
2018-07-23T15:09:53.460Z,8.00
2018-07-23T15:12:22.182Z,8.53
2018-07-23T15:14:50.859Z,9.07
2018-07-23T15:17:19.563Z,8.13
2018-07-23T15:19:48.217Z,12.03
2018-07-23T15:22:16.884Z,9.33
2018-07-23T15:24:45.588Z,8.90
2018-07-23T15:27:14.275Z,8.77
2018-07-23T15:29:42.998Z,8.03
2018-07-23T15:32:11.653Z,8.00
2018-07-23T15:34:40.342Z,8.13
2018-07-23T15:37:09.007Z,9.10
2018-07-23T15:39:37.710Z,7.57
2018-07-23T15:42:06.428Z,8.40
2018-07-23T15:44:35.329Z,8.33
2018-07-23T15:47:03.887Z,8.97
2018-07-23T15:49:32.537Z,7.90
2018-07-23T15:52:01.297Z,7.37
2018-07-23T15:54:29.958Z,8.60
2018-07-23T15:56:58.661Z,8.00
2018-07-23T15:59:27.329Z,7.73
2018-07-23T16:01:55.989Z,8.03
2018-07-23T16:04:24.688Z,8.23
2018-07-23T16:06:53.370Z,8.23
2018-07-23T16:09:22.042Z,7.83
2018-07-23T16:11:50.742Z,8.27
2018-07-23T16:14:19.463Z,7.20
2018-07-23T16:16:48.154Z,6.70
2018-07-23T16:19:16.830Z,7.43
2018-07-23T16:21:45.516Z,6.50
2018-07-23T16:24:14.270Z,6.83
2018-07-23T16:26:42.955Z,6.80
2018-07-23T16:29:11.634Z,6.80
2018-07-23T16:31:40.382Z,6.20
2018-07-23T16:34:09.130Z,6.13
2018-07-23T16:36:37.849Z,6.63
2018-07-23T16:39:09.178Z,6.20
2018-07-23T16:41:37.879Z,6.57
2018-07-23T16:44:07.132Z,7.00
2018-07-23T16:46:35.984Z,6.40
2018-07-23T16:49:04.673Z,7.00
2018-07-23T16:51:33.365Z,6.40
2018-07-23T16:54:02.387Z,6.67
2018-07-23T16:56:31.133Z,6.87
2018-07-23T16:58:59.873Z,6.30
2018-07-23T17:01:28.597Z,9.07
2018-07-23T17:03:57.327Z,7.33
2018-07-23T17:06:28.816Z,6.87
2018-07-23T17:09:12.720Z,8.13
2018-07-23T17:11:42.162Z,6.80
2018-07-23T17:14:10.847Z,6.97
2018-07-23T17:16:39.589Z,7.17
2018-07-23T17:19:08.313Z,7.10
2018-07-23T17:21:37.015Z,7.27
2018-07-23T17:24:05.784Z,7.80
2018-07-23T17:26:34.550Z,7.20
2018-07-23T17:29:03.258Z,7.13
2018-07-23T17:31:32.058Z,6.90
2018-07-23T17:34:00.765Z,7.17
2018-07-23T17:42:28.995Z,7.70
2018-07-23T17:44:57.694Z,7.80
2018-07-23T17:47:26.444Z,7.30
2018-07-23T17:49:55.182Z,7.20
2018-07-23T17:52:23.912Z,7.67
2018-07-23T17:54:52.632Z,6.93
2018-07-23T17:57:21.372Z,6.90
2018-07-23T17:59:50.086Z,7.87
2018-07-23T18:02:18.835Z,6.30
2018-07-23T18:04:47.645Z,7.10
2018-07-23T18:07:16.358Z,6.40
2018-07-23T18:09:45.429Z,7.00
2018-07-23T18:12:14.164Z,7.23
2018-07-23T18:14:42.896Z,7.17
2018-07-23T18:17:12.666Z,7.30
2018-07-23T18:19:41.369Z,6.53
2018-07-23T18:22:10.111Z,6.93
2018-07-23T18:24:38.791Z,6.63
2018-07-23T18:27:07.547Z,7.03
2018-07-23T18:29:36.230Z,6.37
2018-07-23T18:32:05.004Z,7.20
2018-07-23T18:34:33.709Z,7.33
2018-07-23T18:37:02.470Z,6.53
2018-07-23T18:39:32.037Z,6.87
2018-07-23T18:42:00.745Z,7.00
2018-07-23T18:44:29.479Z,7.13
2018-07-23T18:46:58.286Z,7.33
2018-07-23T18:49:41.066Z,7.17
2018-07-23T18:52:17.069Z,7.90
2018-07-23T18:54:47.103Z,7.13
2018-07-23T18:57:15.914Z,7.40
2018-07-23T18:59:44.693Z,7.43
2018-07-23T19:02:14.839Z,7.30
2018-07-23T19:04:43.704Z,7.57
2018-07-23T19:07:12.545Z,7.30
2018-07-23T19:09:41.452Z,7.13
2018-07-23T19:12:11.089Z,7.20
2018-07-23T19:14:40.001Z,6.93
2018-07-23T19:17:11.938Z,6.70
2018-07-23T19:19:41.801Z,6.63
2018-07-23T19:22:11.039Z,8.43
2018-07-23T19:24:40.000Z,6.63
2018-07-23T19:27:08.950Z,7.47
2018-07-23T19:29:37.710Z,7.30
2018-07-23T19:32:06.440Z,7.77
2018-07-23T19:34:35.116Z,7.60
2018-07-23T19:37:03.859Z,7.63
2018-07-23T19:39:32.565Z,8.10
2018-07-23T19:42:01.408Z,7.90
2018-07-23T19:44:30.108Z,8.87
2018-07-23T19:46:58.990Z,8.27
2018-07-23T19:49:27.667Z,8.80
2018-07-23T19:51:57.114Z,8.30
2018-07-23T19:54:25.845Z,9.03
2018-07-23T19:56:55.593Z,10.40
2018-07-23T19:59:24.391Z,8.40
2018-07-23T20:01:53.380Z,8.67
2018-07-23T20:04:22.240Z,8.40
2018-07-23T20:06:51.034Z,8.63
2018-07-23T20:09:19.747Z,8.13
2018-07-23T20:11:48.653Z,8.37
2018-07-23T20:14:17.603Z,9.20
2018-07-23T20:16:46.383Z,9.13
2018-07-23T20:19:15.173Z,9.43
2018-07-23T20:21:43.975Z,8.20
2018-07-23T20:24:12.826Z,9.50
2018-07-23T20:26:41.710Z,9.23
2018-07-23T20:29:10.578Z,9.17
2018-07-23T20:31:39.428Z,9.97
2018-07-23T20:34:08.295Z,10.17
2018-07-23T20:36:37.138Z,10.20
2018-07-23T20:39:07.420Z,14.80
2018-07-23T20:41:36.239Z,9.87
2018-07-23T20:44:05.090Z,11.07
2018-07-23T20:46:33.972Z,12.30
2018-07-23T20:49:02.771Z,10.90
2018-07-23T20:51:31.651Z,11.70
2018-07-23T20:54:00.423Z,11.67
2018-07-23T20:56:29.151Z,10.37
2018-07-23T20:58:57.978Z,11.27
2018-07-23T21:01:26.757Z,11.73
2018-07-23T21:03:55.709Z,11.47
2018-07-23T21:06:24.419Z,12.70
2018-07-23T21:08:53.216Z,12.23
2018-07-23T21:11:22.023Z,12.30
2018-07-23T21:13:50.869Z,11.67
2018-07-23T21:16:19.655Z,12.17
2018-07-23T21:18:48.445Z,12.03
2018-07-23T21:21:17.244Z,13.53
2018-07-23T21:23:46.127Z,13.40
2018-07-23T21:26:14.952Z,14.33
2018-07-23T21:28:43.787Z,13.63
2018-07-23T21:31:12.789Z,13.07
2018-07-23T21:33:41.486Z,12.67
2018-07-23T21:36:11.015Z,13.50
2018-07-23T21:38:39.810Z,13.90
2018-07-23T21:41:08.624Z,13.77
2018-07-23T21:43:37.380Z,13.27
2018-07-23T21:46:06.235Z,13.67
2018-07-23T21:48:35.132Z,14.87
2018-07-23T21:51:03.906Z,14.20
2018-07-23T21:53:32.685Z,14.13
2018-07-23T21:56:01.461Z,14.77
2018-07-23T21:58:30.257Z,14.63
2018-07-23T22:00:59.001Z,15.77
2018-07-23T22:03:27.753Z,15.73
2018-07-23T22:05:56.492Z,14.83
2018-07-23T22:08:25.264Z,14.43
2018-07-23T22:10:54.062Z,15.70
2018-07-23T22:13:22.932Z,15.37
2018-07-23T22:15:51.722Z,16.77
2018-07-23T22:18:20.539Z,15.43
2018-07-23T22:20:49.317Z,14.70
2018-07-23T22:23:18.114Z,16.73
2018-07-23T22:25:46.979Z,15.97
2018-07-23T22:28:15.789Z,16.70
2018-07-23T22:30:44.728Z,16.37
2018-07-23T22:33:13.565Z,16.77
2018-07-23T22:35:42.391Z,17.23
2018-07-23T22:38:11.337Z,16.13
2018-07-23T22:40:40.131Z,17.00
2018-07-23T22:43:08.954Z,17.90
2018-07-23T22:45:37.802Z,17.53
2018-07-23T22:48:06.569Z,17.47
2018-07-23T22:50:35.421Z,18.93
2018-07-23T22:53:04.191Z,16.17
2018-07-23T22:55:32.989Z,17.77
2018-07-23T22:58:01.728Z,17.77
2018-07-23T23:00:30.517Z,18.07
2018-07-23T23:02:59.294Z,18.10
2018-07-23T23:05:28.025Z,17.10
2018-07-23T23:07:56.808Z,17.43
2018-07-23T23:10:25.618Z,19.23
2018-07-23T23:13:01.089Z,18.77
2018-07-23T23:15:29.902Z,19.07
2018-07-23T23:17:58.717Z,19.53
2018-07-23T23:20:27.540Z,20.70
2018-07-23T23:22:56.349Z,21.07
2018-07-23T23:25:25.167Z,19.43
2018-07-23T23:27:53.937Z,20.40
2018-07-23T23:30:22.783Z,19.70
2018-07-23T23:32:51.628Z,20.53
2018-07-23T23:35:20.842Z,19.10
2018-07-23T23:37:49.666Z,21.37
2018-07-23T23:40:18.461Z,19.70
2018-07-23T23:42:47.308Z,19.30
2018-07-23T23:45:16.135Z,19.47
2018-07-23T23:47:44.983Z,19.40
2018-07-23T23:50:13.803Z,19.77
2018-07-23T23:52:42.568Z,19.67
2018-07-23T23:55:11.342Z,20.60
2018-07-23T23:57:40.177Z,18.73
